sensor_id;sensor_type;location;lat;lon;timestamp;P1;durP1;ratioP1;P2;durP2;ratioP2
950;SDS011;462;48.758;9.256;2022-10-17T00:01:40;11.67;;;4.20;;
950;SDS011;462;48.758;9.256;2022-10-17T00:09:44;10.20;;;4.40;;
950;SDS011;462;48.758;9.256;2022-10-17T00:17:47;8.90;;;4.10;;
950;SDS011;462;48.758;9.256;2022-10-17T00:25:57;7.00;;;3.50;;
950;SDS011;462;48.758;9.256;2022-10-17T00:34:00;3.87;;;3.47;;
950;SDS011;462;48.758;9.256;2022-10-17T00:42:04;4.40;;;3.90;;
950;SDS011;462;48.758;9.256;2022-10-17T00:50:07;5.07;;;3.43;;
950;SDS011;462;48.758;9.256;2022-10-17T00:58:12;4.37;;;3.30;;
950;SDS011;462;48.758;9.256;2022-10-17T01:06:15;13.13;;;3.57;;
950;SDS011;462;48.758;9.256;2022-10-17T01:14:20;6.57;;;4.20;;
950;SDS011;462;48.758;9.256;2022-10-17T01:22:26;4.73;;;3.77;;
950;SDS011;462;48.758;9.256;2022-10-17T01:38:56;6.77;;;4.50;;
950;SDS011;462;48.758;9.256;2022-10-17T01:47:03;5.97;;;3.67;;
950;SDS011;462;48.758;9.256;2022-10-17T01:55:08;5.47;;;3.77;;
950;SDS011;462;48.758;9.256;2022-10-17T02:03:15;7.17;;;4.57;;
950;SDS011;462;48.758;9.256;2022-10-17T02:11:19;10.23;;;4.30;;
950;SDS011;462;48.758;9.256;2022-10-17T02:19:29;6.77;;;3.20;;
950;SDS011;462;48.758;9.256;2022-10-17T02:27:41;7.40;;;3.93;;
950;SDS011;462;48.758;9.256;2022-10-17T02:35:48;6.77;;;4.13;;
950;SDS011;462;48.758;9.256;2022-10-17T02:43:52;12.10;;;4.07;;
950;SDS011;462;48.758;9.256;2022-10-17T02:52:00;7.97;;;3.80;;
950;SDS011;462;48.758;9.256;2022-10-17T03:00:07;4.60;;;3.90;;
950;SDS011;462;48.758;9.256;2022-10-17T03:08:13;9.90;;;4.30;;
950;SDS011;462;48.758;9.256;2022-10-17T03:16:17;6.53;;;5.00;;
950;SDS011;462;48.758;9.256;2022-10-17T03:24:21;11.50;;;5.50;;
950;SDS011;462;48.758;9.256;2022-10-17T03:32:24;12.40;;;6.43;;
950;SDS011;462;48.758;9.256;2022-10-17T03:40:29;10.30;;;6.27;;
950;SDS011;462;48.758;9.256;2022-10-17T03:48:32;6.40;;;5.80;;
950;SDS011;462;48.758;9.256;2022-10-17T03:56:36;5.50;;;5.10;;
950;SDS011;462;48.758;9.256;2022-10-17T04:04:43;8.30;;;6.40;;
950;SDS011;462;48.758;9.256;2022-10-17T04:12:47;18.07;;;6.73;;
950;SDS011;462;48.758;9.256;2022-10-17T04:20:51;7.40;;;6.57;;
950;SDS011;462;48.758;9.256;2022-10-17T04:28:56;9.90;;;6.50;;
950;SDS011;462;48.758;9.256;2022-10-17T04:36:58;7.90;;;6.27;;
950;SDS011;462;48.758;9.256;2022-10-17T04:45:03;8.13;;;5.73;;
950;SDS011;462;48.758;9.256;2022-10-17T04:53:08;6.77;;;5.23;;
950;SDS011;462;48.758;9.256;2022-10-17T05:01:13;9.90;;;6.20;;
950;SDS011;462;48.758;9.256;2022-10-17T05:09:19;14.53;;;8.23;;
950;SDS011;462;48.758;9.256;2022-10-17T05:17:23;13.73;;;6.67;;
950;SDS011;462;48.758;9.256;2022-10-17T05:25:26;8.27;;;5.90;;
950;SDS011;462;48.758;9.256;2022-10-17T05:33:30;8.17;;;5.67;;
950;SDS011;462;48.758;9.256;2022-10-17T05:41:33;9.80;;;6.10;;
950;SDS011;462;48.758;9.256;2022-10-17T05:49:37;11.40;;;6.30;;
950;SDS011;462;48.758;9.256;2022-10-17T05:57:39;7.63;;;5.10;;
950;SDS011;462;48.758;9.256;2022-10-17T06:05:49;9.10;;;6.30;;
950;SDS011;462;48.758;9.256;2022-10-17T06:13:52;8.73;;;6.07;;
950;SDS011;462;48.758;9.256;2022-10-17T06:21:59;11.90;;;6.20;;
950;SDS011;462;48.758;9.256;2022-10-17T06:30:03;14.83;;;6.30;;
950;SDS011;462;48.758;9.256;2022-10-17T06:38:07;7.77;;;5.70;;
950;SDS011;462;48.758;9.256;2022-10-17T06:46:11;6.70;;;6.00;;
950;SDS011;462;48.758;9.256;2022-10-17T06:54:28;11.73;;;5.13;;
950;SDS011;462;48.758;9.256;2022-10-17T07:03:03;6.40;;;5.13;;
950;SDS011;462;48.758;9.256;2022-10-17T07:11:10;7.67;;;5.57;;
950;SDS011;462;48.758;9.256;2022-10-17T07:19:13;7.17;;;5.07;;
950;SDS011;462;48.758;9.256;2022-10-17T07:27:17;12.33;;;5.10;;
950;SDS011;462;48.758;9.256;2022-10-17T07:35:21;7.67;;;6.47;;
950;SDS011;462;48.758;9.256;2022-10-17T07:43:25;11.13;;;5.50;;
950;SDS011;462;48.758;9.256;2022-10-17T07:51:29;13.23;;;10.33;;
950;SDS011;462;48.758;9.256;2022-10-17T07:59:32;8.47;;;6.50;;
950;SDS011;462;48.758;9.256;2022-10-17T08:07:35;6.00;;;5.40;;
950;SDS011;462;48.758;9.256;2022-10-17T08:15:39;7.63;;;5.40;;
950;SDS011;462;48.758;9.256;2022-10-17T08:23:41;5.90;;;5.13;;
950;SDS011;462;48.758;9.256;2022-10-17T08:31:45;5.33;;;4.83;;
950;SDS011;462;48.758;9.256;2022-10-17T08:39:48;8.30;;;4.80;;
950;SDS011;462;48.758;9.256;2022-10-17T08:47:52;9.17;;;4.47;;
950;SDS011;462;48.758;9.256;2022-10-17T08:55:59;8.00;;;3.80;;
950;SDS011;462;48.758;9.256;2022-10-17T09:04:15;5.93;;;3.70;;
950;SDS011;462;48.758;9.256;2022-10-17T09:12:34;8.40;;;3.77;;
950;SDS011;462;48.758;9.256;2022-10-17T09:20:44;3.63;;;3.33;;
950;SDS011;462;48.758;9.256;2022-10-17T09:28:50;3.83;;;3.07;;
950;SDS011;462;48.758;9.256;2022-10-17T09:36:57;6.57;;;4.00;;
950;SDS011;462;48.758;9.256;2022-10-17T09:45:02;5.80;;;3.97;;
950;SDS011;462;48.758;9.256;2022-10-17T09:53:22;3.53;;;3.23;;
950;SDS011;462;48.758;9.256;2022-10-17T10:01:28;6.53;;;4.10;;
950;SDS011;462;48.758;9.256;2022-10-17T10:09:32;6.00;;;3.73;;
950;SDS011;462;48.758;9.256;2022-10-17T10:17:36;6.53;;;3.47;;
950;SDS011;462;48.758;9.256;2022-10-17T10:25:50;4.70;;;3.50;;
950;SDS011;462;48.758;9.256;2022-10-17T10:33:54;7.57;;;4.07;;
950;SDS011;462;48.758;9.256;2022-10-17T10:41:59;5.77;;;2.93;;
950;SDS011;462;48.758;9.256;2022-10-17T10:50:07;3.93;;;3.27;;
950;SDS011;462;48.758;9.256;2022-10-17T11:07:48;6.80;;;3.70;;
950;SDS011;462;48.758;9.256;2022-10-17T11:15:52;3.27;;;3.07;;
950;SDS011;462;48.758;9.256;2022-10-17T11:23:59;4.10;;;3.07;;
950;SDS011;462;48.758;9.256;2022-10-17T11:32:07;5.67;;;2.90;;
950;SDS011;462;48.758;9.256;2022-10-17T11:40:16;8.63;;;3.20;;
950;SDS011;462;48.758;9.256;2022-10-17T11:48:22;4.77;;;2.87;;
950;SDS011;462;48.758;9.256;2022-10-17T11:56:30;5.20;;;2.90;;
950;SDS011;462;48.758;9.256;2022-10-17T12:04:39;4.37;;;2.30;;
950;SDS011;462;48.758;9.256;2022-10-17T12:12:47;3.73;;;1.43;;
950;SDS011;462;48.758;9.256;2022-10-17T12:20:54;2.90;;;1.60;;
950;SDS011;462;48.758;9.256;2022-10-17T12:28:58;2.90;;;1.63;;
950;SDS011;462;48.758;9.256;2022-10-17T12:37:01;4.00;;;1.77;;
950;SDS011;462;48.758;9.256;2022-10-17T12:53:42;4.33;;;2.00;;
950;SDS011;462;48.758;9.256;2022-10-17T13:01:50;2.60;;;1.97;;
950;SDS011;462;48.758;9.256;2022-10-17T13:09:55;2.73;;;1.87;;
950;SDS011;462;48.758;9.256;2022-10-17T13:18:03;2.50;;;2.00;;
950;SDS011;462;48.758;9.256;2022-10-17T13:26:11;2.53;;;1.80;;
950;SDS011;462;48.758;9.256;2022-10-17T13:34:16;4.00;;;1.77;;
950;SDS011;462;48.758;9.256;2022-10-17T13:42:22;5.10;;;2.50;;
950;SDS011;462;48.758;9.256;2022-10-17T13:50:36;5.57;;;2.80;;
950;SDS011;462;48.758;9.256;2022-10-17T13:58:41;7.30;;;2.80;;
950;SDS011;462;48.758;9.256;2022-10-17T14:06:44;6.27;;;3.00;;
950;SDS011;462;48.758;9.256;2022-10-17T14:14:49;7.03;;;3.77;;
950;SDS011;462;48.758;9.256;2022-10-17T14:22:53;4.37;;;2.97;;
950;SDS011;462;48.758;9.256;2022-10-17T14:31:08;6.37;;;2.60;;
950;SDS011;462;48.758;9.256;2022-10-17T14:39:17;2.60;;;2.23;;
950;SDS011;462;48.758;9.256;2022-10-17T14:47:24;5.23;;;2.83;;
950;SDS011;462;48.758;9.256;2022-10-17T14:55:28;2.40;;;2.20;;
950;SDS011;462;48.758;9.256;2022-10-17T15:03:33;4.07;;;2.63;;
950;SDS011;462;48.758;9.256;2022-10-17T15:11:35;2.70;;;2.50;;
950;SDS011;462;48.758;9.256;2022-10-17T15:19:39;4.60;;;3.33;;
950;SDS011;462;48.758;9.256;2022-10-17T15:27:42;6.40;;;2.90;;
950;SDS011;462;48.758;9.256;2022-10-17T15:35:45;9.10;;;3.20;;
950;SDS011;462;48.758;9.256;2022-10-17T15:43:48;5.87;;;3.03;;
950;SDS011;462;48.758;9.256;2022-10-17T15:51:52;11.40;;;3.67;;
950;SDS011;462;48.758;9.256;2022-10-17T15:59:54;6.73;;;3.33;;
950;SDS011;462;48.758;9.256;2022-10-17T16:08:00;7.77;;;3.10;;
950;SDS011;462;48.758;9.256;2022-10-17T16:16:03;17.97;;;4.17;;
950;SDS011;462;48.758;9.256;2022-10-17T16:24:08;10.60;;;4.20;;
950;SDS011;462;48.758;9.256;2022-10-17T16:32:11;8.10;;;4.43;;
950;SDS011;462;48.758;9.256;2022-10-17T16:40:15;9.10;;;4.83;;
950;SDS011;462;48.758;9.256;2022-10-17T16:48:17;10.43;;;5.00;;
950;SDS011;462;48.758;9.256;2022-10-17T16:56:21;11.50;;;5.87;;
950;SDS011;462;48.758;9.256;2022-10-17T17:04:28;18.83;;;6.37;;
950;SDS011;462;48.758;9.256;2022-10-17T17:12:33;14.13;;;4.93;;
950;SDS011;462;48.758;9.256;2022-10-17T17:20:36;12.80;;;5.30;;
950;SDS011;462;48.758;9.256;2022-10-17T17:28:39;8.40;;;5.10;;
950;SDS011;462;48.758;9.256;2022-10-17T17:36:42;12.70;;;5.47;;
950;SDS011;462;48.758;9.256;2022-10-17T17:44:46;10.60;;;5.53;;
950;SDS011;462;48.758;9.256;2022-10-17T17:52:49;12.43;;;5.90;;
950;SDS011;462;48.758;9.256;2022-10-17T18:00:53;15.67;;;6.07;;
950;SDS011;462;48.758;9.256;2022-10-17T18:08:56;17.13;;;6.03;;
950;SDS011;462;48.758;9.256;2022-10-17T18:17:00;12.03;;;6.50;;
950;SDS011;462;48.758;9.256;2022-10-17T18:25:03;12.13;;;6.10;;
950;SDS011;462;48.758;9.256;2022-10-17T18:33:07;11.03;;;6.40;;
950;SDS011;462;48.758;9.256;2022-10-17T18:41:10;17.83;;;6.37;;
950;SDS011;462;48.758;9.256;2022-10-17T18:49:16;8.73;;;5.87;;
950;SDS011;462;48.758;9.256;2022-10-17T18:57:22;13.90;;;6.90;;
950;SDS011;462;48.758;9.256;2022-10-17T19:05:26;11.93;;;6.23;;
950;SDS011;462;48.758;9.256;2022-10-17T19:13:29;8.10;;;6.27;;
950;SDS011;462;48.758;9.256;2022-10-17T19:21:33;9.10;;;5.47;;
950;SDS011;462;48.758;9.256;2022-10-17T19:29:36;13.33;;;6.77;;
950;SDS011;462;48.758;9.256;2022-10-17T19:37:43;11.10;;;7.50;;
950;SDS011;462;48.758;9.256;2022-10-17T19:45:52;14.93;;;9.07;;
950;SDS011;462;48.758;9.256;2022-10-17T19:53:57;10.97;;;7.53;;
950;SDS011;462;48.758;9.256;2022-10-17T20:02:00;17.47;;;7.93;;
950;SDS011;462;48.758;9.256;2022-10-17T20:10:04;13.90;;;6.70;;
950;SDS011;462;48.758;9.256;2022-10-17T20:18:07;10.33;;;7.03;;
950;SDS011;462;48.758;9.256;2022-10-17T20:26:12;9.17;;;7.00;;
950;SDS011;462;48.758;9.256;2022-10-17T20:34:16;6.97;;;6.37;;
950;SDS011;462;48.758;9.256;2022-10-17T20:51:40;10.23;;;7.10;;
950;SDS011;462;48.758;9.256;2022-10-17T20:59:43;17.83;;;7.70;;
950;SDS011;462;48.758;9.256;2022-10-17T21:07:48;17.13;;;9.20;;
950;SDS011;462;48.758;9.256;2022-10-17T21:15:50;12.30;;;6.30;;
950;SDS011;462;48.758;9.256;2022-10-17T21:23:55;10.73;;;7.07;;
950;SDS011;462;48.758;9.256;2022-10-17T21:31:59;9.90;;;7.50;;
950;SDS011;462;48.758;9.256;2022-10-17T21:40:04;12.23;;;7.70;;
950;SDS011;462;48.758;9.256;2022-10-17T21:48:07;11.53;;;6.67;;
950;SDS011;462;48.758;9.256;2022-10-17T21:56:11;9.47;;;6.97;;
950;SDS011;462;48.758;9.256;2022-10-17T22:04:15;13.77;;;7.13;;
950;SDS011;462;48.758;9.256;2022-10-17T22:12:19;10.87;;;7.37;;
950;SDS011;462;48.758;9.256;2022-10-17T22:20:21;14.97;;;8.60;;
950;SDS011;462;48.758;9.256;2022-10-17T22:28:25;10.60;;;6.73;;
950;SDS011;462;48.758;9.256;2022-10-17T22:36:28;9.10;;;7.60;;
950;SDS011;462;48.758;9.256;2022-10-17T22:44:31;14.97;;;8.17;;
950;SDS011;462;48.758;9.256;2022-10-17T22:52:34;13.07;;;7.70;;
950;SDS011;462;48.758;9.256;2022-10-17T23:00:38;12.50;;;7.80;;
950;SDS011;462;48.758;9.256;2022-10-17T23:08:41;10.30;;;7.60;;
950;SDS011;462;48.758;9.256;2022-10-17T23:16:45;11.10;;;8.57;;
950;SDS011;462;48.758;9.256;2022-10-17T23:24:47;14.90;;;8.60;;
950;SDS011;462;48.758;9.256;2022-10-17T23:32:51;13.33;;;8.97;;
950;SDS011;462;48.758;9.256;2022-10-17T23:40:54;9.83;;;7.97;;
950;SDS011;462;48.758;9.256;2022-10-17T23:48:57;8.60;;;7.30;;
950;SDS011;462;48.758;9.256;2022-10-17T23:57:00;27.67;;;8.70;;
